MMCN

Ciudad Obregón International Airport

Ciudad Obregón, Mexico
TAF MMCN 181641Z 1818/1918 33010KT P6SM SKC FM190600 02015KT P6SM SKC
Issued Valid From Valid To
Jan-18 @ 16:41 UTC
(10 hours ago)
Jan-18 @ 18:00 UTC
(9 hours ago)
Jan-19 @ 18:00 UTC
(in 15 hours)
Jan-18 @ 18:00 to Jan-19 @ 06:00
TAF MMCN 181641Z 1818/1918 33010KT P6SM SKC
Wind Visibility Clouds
330° at 10 knots Greater than 6 miles
  • Clear skies
From Jan-19 @ 06:00 to Jan-19 @ 18:00
FM190600 02015KT P6SM SKC
Wind Visibility Clouds
20° at 15 knots Greater than 6 miles
  • Clear skies
TAF MMCN 181641Z 1818/1918 33010KT P6SM SKC FM190600 02015KT P6SM SKC
Issued Jan-18 @ 16:41 UTC
(10 hours ago)
Valid From Jan-18 @ 18:00 UTC
(9 hours ago)
Valid To Jan-19 @ 18:00 UTC
(in 15 hours)
Jan-18 @ 18:00 - Jan-19 @ 06:00
Wind Visibility
330° at 10 knots Greater than 6 miles
Clouds
  • Clear skies
From Jan-19 @ 06:00 - Jan-19 @ 18:00
Wind Visibility
20° at 15 knots Greater than 6 miles
Clouds
  • Clear skies